createdAt,value
2022-09-26T00:01:34.857Z,10.42
2022-09-26T00:04:05.921Z,10.44
2022-09-26T00:06:34.662Z,10.44
2022-09-26T00:09:02.768Z,10.39
2022-09-26T00:11:34.508Z,10.27
2022-09-26T00:14:06.067Z,10.30
2022-09-26T00:16:35.916Z,10.36
2022-09-26T00:19:05.299Z,10.32
2022-09-26T00:21:33.702Z,10.32
2022-09-26T00:24:03.129Z,10.29
2022-09-26T00:26:34.914Z,10.29
2022-09-26T00:29:07.310Z,10.30
2022-09-26T00:31:39.375Z,10.24
2022-09-26T00:34:08.056Z,10.16
2022-09-26T00:36:38.313Z,10.13
2022-09-26T00:39:08.765Z,10.16
2022-09-26T00:41:39.514Z,10.17
2022-09-26T00:44:46.509Z,10.19
2022-09-26T00:47:30.514Z,10.13
2022-09-26T00:50:03.747Z,10.18
2022-09-26T00:52:37.047Z,10.17
2022-09-26T00:55:08.568Z,10.20
2022-09-26T00:57:42.967Z,10.25
2022-09-26T01:00:15.389Z,10.24
2022-09-26T01:02:46.505Z,10.15
2022-09-26T01:05:18.271Z,10.11
2022-09-26T01:07:48.942Z,10.12
2022-09-26T01:10:17.517Z,10.15
2022-09-26T01:12:46.925Z,10.10
2022-09-26T01:15:16.491Z,10.07
2022-09-26T01:17:46.931Z,9.90
2022-09-26T01:20:27.666Z,9.76
2022-09-26T01:23:45.387Z,9.79
2022-09-26T01:27:00.362Z,9.75
2022-09-26T01:30:03.915Z,9.77
2022-09-26T01:32:54.740Z,9.78
2022-09-26T01:36:05.620Z,9.76
2022-09-26T01:38:46.328Z,9.71
2022-09-26T01:41:32.674Z,9.85
2022-09-26T01:44:10.863Z,9.79
2022-09-26T01:46:47.840Z,9.76
2022-09-26T01:49:27.247Z,9.77
2022-09-26T01:52:00.959Z,9.92
2022-09-26T01:54:36.866Z,9.94
2022-09-26T01:57:07.733Z,9.85
2022-09-26T01:59:42.636Z,9.71
2022-09-26T02:02:17.380Z,9.66
2022-09-26T02:04:54.177Z,9.68
2022-09-26T02:07:31.409Z,9.71
2022-09-26T02:10:04.905Z,9.81
2022-09-26T02:12:35.992Z,9.80
2022-09-26T02:15:08.238Z,9.78
2022-09-26T02:17:42.489Z,9.80
2022-09-26T02:20:16.887Z,9.73
2022-09-26T02:22:47.184Z,9.69
2022-09-26T02:25:16.659Z,9.60
2022-09-26T02:27:46.431Z,9.65
2022-09-26T02:30:14.915Z,9.66
2022-09-26T02:32:43.201Z,9.57
2022-09-26T02:35:36.797Z,9.52
2022-09-26T02:38:08.096Z,9.57
2022-09-26T02:40:52.066Z,9.57
2022-09-26T02:43:44.278Z,9.45
2022-09-26T02:46:29.802Z,9.50
2022-09-26T02:49:13.237Z,9.65
2022-09-26T02:52:02.530Z,9.65
2022-09-26T02:54:40.753Z,9.61
2022-09-26T02:57:22.602Z,9.74
2022-09-26T02:59:59.805Z,9.73
2022-09-26T03:02:35.217Z,9.69
2022-09-26T03:05:14.688Z,9.64
2022-09-26T03:07:48.321Z,9.63
2022-09-26T03:10:18.177Z,9.64
2022-09-26T03:12:47.542Z,9.59
2022-09-26T03:15:17.445Z,9.63
2022-09-26T03:17:51.521Z,9.61
2022-09-26T03:20:22.696Z,9.54
2022-09-26T03:22:55.055Z,9.59
2022-09-26T03:25:27.190Z,9.63
2022-09-26T03:28:10.788Z,9.60
2022-09-26T03:30:39.843Z,9.62
2022-09-26T03:33:34.254Z,9.64
2022-09-26T03:36:06.548Z,9.66
2022-09-26T03:38:36.251Z,9.58
2022-09-26T03:41:19.712Z,9.40
2022-09-26T03:44:05.494Z,9.40
2022-09-26T03:46:53.964Z,9.42
2022-09-26T03:49:22.119Z,9.45
2022-09-26T03:51:51.716Z,9.55
2022-09-26T03:54:21.807Z,9.54
2022-09-26T03:56:50.503Z,9.53
2022-09-26T03:59:18.838Z,9.55
2022-09-26T04:01:49.078Z,9.51
2022-09-26T04:04:17.289Z,9.48
2022-09-26T04:06:46.131Z,9.50
2022-09-26T04:09:17.722Z,9.37
2022-09-26T04:11:54.601Z,9.23
2022-09-26T04:14:23.118Z,9.26
2022-09-26T04:16:58.435Z,9.23
2022-09-26T04:19:30.602Z,9.31
2022-09-26T04:21:59.972Z,9.35
2022-09-26T04:24:32.934Z,9.36
2022-09-26T04:27:02.773Z,9.29
2022-09-26T04:29:33.727Z,9.30
2022-09-26T04:32:12.344Z,9.28
2022-09-26T04:35:03.265Z,9.30
2022-09-26T04:37:31.317Z,9.37
2022-09-26T04:39:59.606Z,9.34
2022-09-26T04:42:33.574Z,9.38
2022-09-26T04:45:02.073Z,9.50
2022-09-26T04:47:30.450Z,9.60
2022-09-26T04:50:17.649Z,9.69
2022-09-26T04:53:02.852Z,9.81
2022-09-26T04:55:31.822Z,9.77
2022-09-26T04:58:02.341Z,9.75
2022-09-26T05:00:31.965Z,9.77
2022-09-26T05:03:05.227Z,9.87
2022-09-26T05:05:34.012Z,10.00
2022-09-26T05:08:02.823Z,10.05
2022-09-26T05:10:32.856Z,10.07
2022-09-26T05:13:06.077Z,10.19
2022-09-26T05:15:39.466Z,10.15
2022-09-26T05:18:11.503Z,10.22
2022-09-26T05:20:40.366Z,10.18
2022-09-26T05:23:09.260Z,10.30
2022-09-26T05:25:57.658Z,10.38
2022-09-26T05:28:28.614Z,10.47
2022-09-26T05:30:57.411Z,10.61
2022-09-26T05:33:25.560Z,10.63
2022-09-26T05:35:54.939Z,10.60
2022-09-26T05:38:23.320Z,10.74
2022-09-26T05:40:59.850Z,10.93
2022-09-26T05:43:33.172Z,10.93
2022-09-26T05:46:05.151Z,10.82
2022-09-26T05:48:39.676Z,10.81
2022-09-26T05:51:14.187Z,10.73
2022-09-26T05:53:45.915Z,10.75
2022-09-26T05:56:19.258Z,10.71
2022-09-26T05:59:12.672Z,10.88
2022-09-26T06:01:59.498Z,10.84
2022-09-26T06:04:45.162Z,10.89
2022-09-26T06:07:31.899Z,11.02
2022-09-26T06:10:01.198Z,10.95
2022-09-26T06:12:38.329Z,11.11
2022-09-26T06:15:09.575Z,11.15
2022-09-26T06:17:38.778Z,11.18
2022-09-26T06:20:08.678Z,11.14
2022-09-26T06:22:42.193Z,11.25
2022-09-26T06:25:11.807Z,11.23
2022-09-26T06:27:42.555Z,11.28
2022-09-26T06:30:12.921Z,11.18
2022-09-26T06:32:42.967Z,11.10
2022-09-26T06:35:22.632Z,11.03
2022-09-26T06:38:11.486Z,11.05
2022-09-26T06:40:39.646Z,10.96
2022-09-26T06:43:07.675Z,11.05
2022-09-26T06:45:57.038Z,11.44
2022-09-26T06:48:32.310Z,11.82
2022-09-26T06:51:07.086Z,11.96
2022-09-26T06:53:36.132Z,12.00
2022-09-26T06:56:05.297Z,12.31
2022-09-26T06:58:34.375Z,12.79
2022-09-26T07:01:08.581Z,13.16
2022-09-26T07:04:00.389Z,13.21
2022-09-26T07:06:47.496Z,12.96
2022-09-26T07:09:16.441Z,13.03
2022-09-26T07:12:14.004Z,13.46
2022-09-26T07:14:42.853Z,13.70
2022-09-26T07:17:25.556Z,13.98
2022-09-26T07:20:26.954Z,14.38
2022-09-26T07:23:10.684Z,14.52
2022-09-26T07:25:40.556Z,14.50
2022-09-26T07:28:11.399Z,14.48
2022-09-26T07:30:50.461Z,14.73
2022-09-26T07:33:52.822Z,15.38
2022-09-26T07:36:21.319Z,15.67
2022-09-26T07:38:53.890Z,16.09
2022-09-26T07:41:25.393Z,15.62
2022-09-26T07:47:01.120Z,15.18
2022-09-26T07:49:48.542Z,15.57
2022-09-26T07:52:35.234Z,15.32
2022-09-26T07:55:17.303Z,15.59
2022-09-26T07:58:14.997Z,15.79
2022-09-26T08:00:53.493Z,16.17
2022-09-26T08:03:42.181Z,17.04
2022-09-26T08:06:24.154Z,17.33
2022-09-26T08:08:54.665Z,16.66
2022-09-26T08:11:41.916Z,16.51
2022-09-26T08:14:37.697Z,16.08
2022-09-26T08:17:19.131Z,16.01
2022-09-26T08:19:47.977Z,16.19
2022-09-26T08:22:18.159Z,16.20
2022-09-26T08:24:50.893Z,16.52
2022-09-26T08:27:59.573Z,17.16
2022-09-26T08:30:31.279Z,17.40
2022-09-26T08:33:02.191Z,17.27
2022-09-26T08:35:38.457Z,17.27
2022-09-26T08:38:27.995Z,17.82
2022-09-26T08:41:17.439Z,18.37
2022-09-26T08:44:24.358Z,18.70
2022-09-26T08:47:28.422Z,18.77
2022-09-26T08:50:24.244Z,17.87
2022-09-26T08:52:56.599Z,17.54
2022-09-26T08:55:31.042Z,17.52
2022-09-26T08:58:02.612Z,17.39
2022-09-26T09:00:34.405Z,17.43
2022-09-26T09:03:18.880Z,17.10
2022-09-26T09:05:51.336Z,16.82
2022-09-26T09:08:23.779Z,16.99
2022-09-26T09:11:21.148Z,17.25
2022-09-26T09:14:09.833Z,16.93
2022-09-26T09:17:10.146Z,16.53
2022-09-26T09:20:10.262Z,16.96
2022-09-26T09:23:12.935Z,17.20
2022-09-26T09:25:50.592Z,17.57
2022-09-26T09:28:32.255Z,17.66
2022-09-26T09:31:02.173Z,17.64
2022-09-26T09:33:35.828Z,18.79
2022-09-26T09:36:25.919Z,20.26
2022-09-26T09:39:22.299Z,20.59
2022-09-26T09:42:01.266Z,22.09
2022-09-26T09:44:45.637Z,21.70
2022-09-26T09:47:16.549Z,22.38
2022-09-26T09:49:45.943Z,23.64
2022-09-26T09:52:27.335Z,24.24
2022-09-26T09:55:06.955Z,24.28
2022-09-26T09:58:07.280Z,24.31
2022-09-26T10:00:42.638Z,25.00
2022-09-26T10:03:26.723Z,23.52
2022-09-26T10:05:59.816Z,21.06
2022-09-26T10:08:41.364Z,19.92
2022-09-26T10:11:26.300Z,18.93
2022-09-26T10:14:03.424Z,18.64
2022-09-26T10:17:18.946Z,20.54
2022-09-26T10:20:10.277Z,22.87
2022-09-26T10:22:45.808Z,25.34
2022-09-26T10:25:26.718Z,25.56
2022-09-26T10:27:57.603Z,24.60
2022-09-26T10:30:33.229Z,24.82
2022-09-26T10:33:06.761Z,23.27
2022-09-26T10:36:05.107Z,23.15
2022-09-26T10:38:55.556Z,23.56
2022-09-26T10:41:24.858Z,22.05
2022-09-26T10:43:57.668Z,23.34
2022-09-26T10:46:46.513Z,22.68
2022-09-26T10:50:02.832Z,19.81
2022-09-26T10:52:40.760Z,18.50
2022-09-26T10:55:15.008Z,17.82
2022-09-26T10:57:46.838Z,18.18
2022-09-26T11:00:21.967Z,18.58
2022-09-26T11:02:52.854Z,18.88
2022-09-26T11:05:42.224Z,19.31
2022-09-26T11:08:17.356Z,20.37
2022-09-26T11:11:00.471Z,20.56
2022-09-26T11:13:41.543Z,18.97
2022-09-26T11:16:17.176Z,18.77
2022-09-26T11:18:53.465Z,18.18
2022-09-26T11:21:29.675Z,17.99
2022-09-26T11:24:07.069Z,17.15
2022-09-26T11:26:43.643Z,17.05
2022-09-26T11:29:18.298Z,16.69
2022-09-26T11:32:05.184Z,17.86
2022-09-26T11:34:53.286Z,20.70
2022-09-26T11:37:33.192Z,20.01
2022-09-26T11:40:30.031Z,18.29
2022-09-26T11:43:11.095Z,17.29
2022-09-26T11:46:04.289Z,18.77
2022-09-26T11:49:24.506Z,18.11
2022-09-26T11:52:24.656Z,18.38
2022-09-26T11:55:09.664Z,19.50
2022-09-26T11:57:49.230Z,20.92
2022-09-26T12:00:27.610Z,20.61
2022-09-26T12:03:23.064Z,22.77
2022-09-26T12:05:59.859Z,22.72
2022-09-26T12:08:48.194Z,21.84
2022-09-26T12:11:34.215Z,23.38
2022-09-26T12:14:13.921Z,22.84
2022-09-26T12:16:51.956Z,22.52
2022-09-26T12:19:34.272Z,21.22
2022-09-26T12:22:27.978Z,20.69
2022-09-26T12:25:22.261Z,20.38
2022-09-26T12:28:02.320Z,18.01
2022-09-26T12:30:36.426Z,17.59
2022-09-26T12:33:33.684Z,17.87
2022-09-26T12:36:10.942Z,17.18
2022-09-26T12:38:57.070Z,17.15
2022-09-26T12:41:39.666Z,17.75
2022-09-26T12:44:27.334Z,18.03
2022-09-26T12:47:15.942Z,17.62
2022-09-26T12:50:14.705Z,17.82
2022-09-26T12:53:19.861Z,17.19
2022-09-26T12:55:59.868Z,16.53
2022-09-26T12:58:50.575Z,15.95
2022-09-26T13:01:37.890Z,15.47
2022-09-26T13:04:30.177Z,14.79
2022-09-26T13:07:20.947Z,14.74
2022-09-26T13:10:18.805Z,15.35
2022-09-26T13:13:05.579Z,15.98
2022-09-26T13:15:40.135Z,16.16
2022-09-26T13:18:23.039Z,16.87
2022-09-26T13:21:02.378Z,16.77
2022-09-26T13:23:35.943Z,17.51
2022-09-26T13:26:05.896Z,17.67
2022-09-26T13:28:47.536Z,17.01
2022-09-26T13:31:31.822Z,16.57
2022-09-26T13:34:06.610Z,16.19
2022-09-26T13:36:37.396Z,15.45
2022-09-26T13:39:11.032Z,14.95
2022-09-26T13:41:44.213Z,14.50
2022-09-26T13:44:28.560Z,14.42
2022-09-26T13:47:10.215Z,14.66
2022-09-26T13:49:52.231Z,14.84
2022-09-26T13:52:35.484Z,15.32
2022-09-26T13:55:12.424Z,15.34
2022-09-26T13:57:48.028Z,15.33
2022-09-26T14:00:49.441Z,15.34
2022-09-26T14:03:48.189Z,15.58
2022-09-26T14:06:30.913Z,15.95
2022-09-26T14:09:26.034Z,16.40
2022-09-26T14:12:30.695Z,16.68
2022-09-26T14:15:18.587Z,17.00
2022-09-26T14:18:09.302Z,17.33
2022-09-26T14:20:53.395Z,17.31
2022-09-26T14:24:13.032Z,17.46
2022-09-26T14:26:43.846Z,17.69
2022-09-26T14:29:26.869Z,18.11
2022-09-26T14:32:20.156Z,18.05
2022-09-26T14:34:54.975Z,17.31
2022-09-26T14:37:44.668Z,16.75
2022-09-26T14:40:31.278Z,16.69
2022-09-26T14:43:16.178Z,16.75
2022-09-26T14:45:49.004Z,16.31
2022-09-26T14:48:30.374Z,16.14
2022-09-26T14:51:02.966Z,15.81
2022-09-26T14:53:37.374Z,15.71
2022-09-26T14:56:13.413Z,16.27
2022-09-26T14:58:51.450Z,16.65
2022-09-26T15:01:31.829Z,16.96
2022-09-26T15:04:07.260Z,17.07
2022-09-26T15:06:42.931Z,17.33
2022-09-26T15:09:13.984Z,17.06
2022-09-26T15:11:46.028Z,17.02
2022-09-26T15:14:31.757Z,17.09
2022-09-26T15:17:02.498Z,16.96
2022-09-26T15:19:36.799Z,16.79
2022-09-26T15:22:12.953Z,16.51
2022-09-26T15:24:41.576Z,16.53
2022-09-26T15:27:16.055Z,16.44
2022-09-26T15:29:47.770Z,16.36
2022-09-26T15:32:20.724Z,16.29
2022-09-26T15:34:52.031Z,16.20
2022-09-26T15:37:24.048Z,16.37
2022-09-26T15:39:52.734Z,16.09
2022-09-26T15:42:43.878Z,16.05
2022-09-26T15:45:27.190Z,15.95
2022-09-26T15:47:56.419Z,16.04
2022-09-26T15:50:29.021Z,15.99
2022-09-26T15:53:05.023Z,15.79
2022-09-26T15:55:37.177Z,15.73
2022-09-26T15:58:08.689Z,15.97
2022-09-26T16:00:41.980Z,15.98
2022-09-26T16:03:35.413Z,15.72
2022-09-26T16:06:17.685Z,15.57
2022-09-26T16:08:51.600Z,15.49
2022-09-26T16:11:21.189Z,15.51
2022-09-26T16:13:53.748Z,15.50
2022-09-26T16:16:32.217Z,15.49
2022-09-26T16:19:03.384Z,15.36
2022-09-26T16:21:36.880Z,15.38
2022-09-26T16:24:28.084Z,15.38
2022-09-26T16:26:57.887Z,15.39
2022-09-26T16:29:36.826Z,15.15
2022-09-26T16:32:05.709Z,15.17
2022-09-26T16:34:35.384Z,15.11
2022-09-26T16:37:04.957Z,15.09
2022-09-26T16:39:35.749Z,15.18
2022-09-26T16:42:15.481Z,15.13
2022-09-26T16:44:52.155Z,14.86
2022-09-26T16:47:35.406Z,14.85
2022-09-26T16:50:28.034Z,14.81
2022-09-26T16:52:58.473Z,14.71
2022-09-26T16:55:27.399Z,14.60
2022-09-26T16:57:58.961Z,14.67
2022-09-26T17:00:49.946Z,14.62
2022-09-26T17:03:25.331Z,14.61
2022-09-26T17:05:55.959Z,14.61
2022-09-26T17:08:29.466Z,14.59
2022-09-26T17:11:03.160Z,14.48
2022-09-26T17:13:35.198Z,14.49
2022-09-26T17:16:03.898Z,14.46
2022-09-26T17:18:33.811Z,14.47
2022-09-26T17:21:02.188Z,14.36
2022-09-26T17:23:40.342Z,14.14
2022-09-26T17:26:18.685Z,13.90
2022-09-26T17:28:47.104Z,13.62
2022-09-26T17:31:19.643Z,13.41
2022-09-26T17:33:49.843Z,13.26
2022-09-26T17:36:23.242Z,13.16
2022-09-26T17:38:53.577Z,13.08
2022-09-26T17:41:22.231Z,13.11
2022-09-26T17:43:59.060Z,13.09
2022-09-26T17:46:29.722Z,12.98
2022-09-26T17:48:59.361Z,12.96
2022-09-26T17:51:27.886Z,12.94
2022-09-26T17:53:59.624Z,12.95
2022-09-26T17:56:28.628Z,12.98
2022-09-26T17:58:57.537Z,12.84
2022-09-26T18:01:27.927Z,12.73
2022-09-26T18:04:01.323Z,12.75
2022-09-26T18:06:33.088Z,12.84
2022-09-26T18:09:10.341Z,12.89
2022-09-26T18:11:41.695Z,12.95
2022-09-26T18:14:17.164Z,12.94
2022-09-26T18:16:46.574Z,13.04
2022-09-26T18:19:14.918Z,12.38
2022-09-26T18:21:44.242Z,12.28
2022-09-26T18:24:19.848Z,12.35
2022-09-26T18:26:50.812Z,12.45
2022-09-26T18:29:23.904Z,12.50
2022-09-26T18:31:51.844Z,12.56
2022-09-26T18:34:20.503Z,12.54
2022-09-26T18:36:50.090Z,12.49
2022-09-26T18:39:19.904Z,12.48
2022-09-26T18:41:50.799Z,12.64
2022-09-26T18:44:20.182Z,12.71
2022-09-26T18:46:49.285Z,12.76
2022-09-26T18:49:17.872Z,12.89
2022-09-26T18:51:46.893Z,12.77
2022-09-26T18:54:16.885Z,12.63
2022-09-26T18:57:04.445Z,12.39
2022-09-26T18:59:32.391Z,12.32
2022-09-26T19:02:02.696Z,12.19
2022-09-26T19:04:31.505Z,12.13
2022-09-26T19:07:02.208Z,12.16
2022-09-26T19:09:34.143Z,12.13
2022-09-26T19:12:04.432Z,12.14
2022-09-26T19:14:32.874Z,12.22
2022-09-26T19:17:01.051Z,12.24
2022-09-26T19:19:30.203Z,12.34
2022-09-26T19:22:00.324Z,12.20
2022-09-26T19:24:32.521Z,12.00
2022-09-26T19:27:06.620Z,12.14
2022-09-26T19:29:39.706Z,12.01
2022-09-26T19:32:11.991Z,11.85
2022-09-26T19:34:40.367Z,11.89
2022-09-26T19:37:10.407Z,11.83
2022-09-26T19:39:38.897Z,11.88
2022-09-26T19:42:09.804Z,11.83
2022-09-26T19:44:37.477Z,11.81
2022-09-26T19:47:05.498Z,11.75
2022-09-26T19:49:33.606Z,11.80
2022-09-26T19:52:02.542Z,11.74
2022-09-26T19:54:30.465Z,11.59
2022-09-26T19:56:58.837Z,11.53
2022-09-26T19:59:28.112Z,11.56
2022-09-26T20:01:56.242Z,11.50
2022-09-26T20:04:24.222Z,11.51
2022-09-26T20:06:51.905Z,11.51
2022-09-26T20:09:21.368Z,11.45
2022-09-26T20:11:49.517Z,11.42
2022-09-26T20:14:26.479Z,11.32
2022-09-26T20:16:59.095Z,11.38
2022-09-26T20:19:35.199Z,11.40
2022-09-26T20:22:05.324Z,11.34
2022-09-26T20:24:34.331Z,11.40
2022-09-26T20:27:04.311Z,11.38
2022-09-26T20:29:52.192Z,11.35
2022-09-26T20:32:21.565Z,11.31
2022-09-26T20:34:49.715Z,11.23
2022-09-26T20:37:19.980Z,11.25
2022-09-26T20:39:48.121Z,11.31
2022-09-26T20:42:18.826Z,11.39
2022-09-26T20:44:48.682Z,11.28
2022-09-26T20:47:21.828Z,11.22
2022-09-26T20:49:54.861Z,11.27
2022-09-26T21:07:38.956Z,11.14
2022-09-26T21:10:22.055Z,11.09
2022-09-26T21:12:50.146Z,11.07
2022-09-26T21:15:17.955Z,11.14
2022-09-26T21:17:47.710Z,11.15
2022-09-26T21:20:18.013Z,11.04
2022-09-26T21:23:01.785Z,11.08
2022-09-26T21:25:31.187Z,11.05
2022-09-26T21:28:01.247Z,11.02
2022-09-26T21:30:30.477Z,11.07
2022-09-26T21:33:00.096Z,11.10
2022-09-26T21:35:31.653Z,11.20
2022-09-26T21:38:02.298Z,11.20
2022-09-26T21:40:33.168Z,11.17
2022-09-26T21:43:07.141Z,11.02
2022-09-26T21:45:35.703Z,10.95
2022-09-26T21:48:04.101Z,11.00
2022-09-26T21:50:32.174Z,11.05
2022-09-26T21:53:04.713Z,11.08
2022-09-26T21:55:37.256Z,11.15
2022-09-26T21:58:10.383Z,11.22
2022-09-26T22:00:38.538Z,11.15
2022-09-26T22:03:06.797Z,11.17
2022-09-26T22:05:35.070Z,11.22
2022-09-26T22:08:04.539Z,11.30
2022-09-26T22:10:32.948Z,11.17
2022-09-26T22:13:01.186Z,11.09
2022-09-26T22:15:29.699Z,11.16
2022-09-26T22:17:58.116Z,11.13
2022-09-26T22:20:26.611Z,11.20
2022-09-26T22:22:55.491Z,11.15
2022-09-26T22:25:25.392Z,11.08
2022-09-26T22:27:53.650Z,11.07
2022-09-26T22:30:21.844Z,11.02
2022-09-26T22:32:50.818Z,11.04
2022-09-26T22:35:19.099Z,11.17
2022-09-26T22:37:47.170Z,11.18
2022-09-26T22:40:15.523Z,11.12
2022-09-26T22:42:44.908Z,11.01
2022-09-26T22:45:12.893Z,11.00
2022-09-26T22:47:40.658Z,10.94
2022-09-26T22:50:09.447Z,11.05
2022-09-26T22:52:37.315Z,10.98
2022-09-26T22:55:05.960Z,10.95
2022-09-26T22:57:33.919Z,10.95
2022-09-26T23:00:03.926Z,10.89
2022-09-26T23:02:31.850Z,10.90
2022-09-26T23:04:59.865Z,10.96
2022-09-26T23:07:27.723Z,10.96
2022-09-26T23:09:55.581Z,11.03
2022-09-26T23:12:23.467Z,10.97
2022-09-26T23:14:51.134Z,10.99
2022-09-26T23:17:20.421Z,11.09
2022-09-26T23:19:48.062Z,11.07
2022-09-26T23:22:15.842Z,11.04
2022-09-26T23:24:45.989Z,11.02
2022-09-26T23:27:13.737Z,11.08
2022-09-26T23:29:41.975Z,11.10
2022-09-26T23:32:09.997Z,11.16
2022-09-26T23:34:39.184Z,11.14
2022-09-26T23:37:06.915Z,11.28
2022-09-26T23:39:34.915Z,11.20
2022-09-26T23:42:02.582Z,11.12
2022-09-26T23:44:30.506Z,11.11
2022-09-26T23:46:59.888Z,11.25
2022-09-26T23:49:28.326Z,11.25
2022-09-26T23:51:57.482Z,11.29
2022-09-26T23:54:25.178Z,11.27
2022-09-26T23:56:53.127Z,11.20
2022-09-26T23:59:20.933Z,11.17
